Time;durP1;ratioP1;P1;durP2;ratioP2;P2;SDS_P1;SDS_P2;PMS_P1;PMS_P2;Temp;Humidity;BMP_temperature;BMP_pressure;BME280_temperature;BME280_humidity;BME280_pressure;Samples;Min_cycle;Max_cycle;Signal;HPM_P1;HPM_P2
2024/04/04 00:00:23;;;;;;;;;;;;;;;-3.75;95.46;100266.47;5056693;28;19924;-67
2024/04/04 00:02:49;;;;;;;;;;;;;;;-3.71;95.85;100277.56;5068231;28;19924;-69
2024/04/04 00:05:15;;;;;;;;;;;;;;;-3.66;95.94;100279.91;5062594;28;19921;-66
2024/04/04 00:07:40;;;;;;;;;;;;;;;-3.66;96.04;100291.16;5060853;28;20035;-67
2024/04/04 00:10:05;;;;;;;;;;;;;;;-3.64;95.69;100296.28;5062200;28;19931;-68
2024/04/04 00:12:31;;;;;;;;;;;;;;;-3.66;95.70;100296.34;5064514;28;19921;-65
2024/04/04 00:14:56;;;;;;;;;;;;;;;-3.62;96.23;100308.28;5065799;28;19932;-66
2024/04/04 00:17:22;;;;;;;;;;;;;;;-3.59;96.33;100308.09;5056417;28;20391;-66
2024/04/04 00:19:47;;;;;;;;;;;;;;;-3.60;96.59;100316.84;5068967;28;19924;-66
2024/04/04 00:22:12;;;;;;;;;;;;;;;-3.58;96.15;100324.56;5066494;28;19924;-68
2024/04/04 00:24:38;;;;;;;;;;;;;;;-3.62;96.16;100329.09;5070664;28;19931;-66
2024/04/04 00:27:04;;;;;;;;;;;;;;;-3.61;95.98;100329.94;5059625;28;19986;-66
2024/04/04 00:29:29;;;;;;;;;;;;;;;-3.66;96.77;100332.78;5065727;28;19946;-68
2024/04/04 00:31:55;;;;;;;;;;;;;;;-3.56;96.76;100338.31;5065739;28;19925;-68
2024/04/04 00:34:20;;;;;;;;;;;;;;;-3.52;96.85;100334.63;5061307;28;20464;-68
2024/04/04 00:36:46;;;;;;;;;;;;;;;-3.53;96.29;100338.16;5057979;28;20391;-67
2024/04/04 00:39:11;;;;;;;;;;;;;;;-3.57;96.58;100357.47;5052987;28;19967;-67
2024/04/04 00:41:36;;;;;;;;;;;;;;;-3.57;95.94;100358.31;5056597;28;19925;-67
2024/04/04 00:44:02;;;;;;;;;;;;;;;-3.55;95.93;100361.66;5057423;28;20307;-67
2024/04/04 00:46:27;;;;;;;;;;;;;;;-3.55;96.16;100372.09;5065974;28;20411;-66
2024/04/04 00:48:52;;;;;;;;;;;;;;;-3.56;96.54;100377.38;5059796;28;20414;-64
2024/04/04 00:51:19;;;;;;;;;;;;;;;-3.66;96.09;100379.63;5057384;28;19925;-67
2024/04/04 00:53:45;;;;;;;;;;;;;;;-3.69;96.02;100390.22;5068540;28;19924;-70
2024/04/04 00:56:11;;;;;;;;;;;;;;;-3.63;96.31;100391.66;5063622;28;19924;-68
2024/04/04 00:58:36;;;;;;;;;;;;;;;-3.63;96.73;100405.50;5061135;28;19927;-69
2024/04/04 01:01:02;;;;;;;;;;;;;;;-3.66;96.75;100400.47;5060805;28;20322;-66
2024/04/04 01:03:27;;;;;;;;;;;;;;;-3.67;95.92;100418.75;5054669;28;19932;-67
2024/04/04 01:05:53;;;;;;;;;;;;;;;-3.78;95.35;100406.28;5063131;28;19920;-68
2024/04/04 01:08:19;;;;;;;;;;;;;;;-3.80;95.62;100423.75;5065657;28;19920;-68
2024/04/04 01:10:44;;;;;;;;;;;;;;;-3.87;95.18;100428.44;5055227;28;19982;-67
2024/04/04 01:13:10;;;;;;;;;;;;;;;-3.89;95.55;100435.47;5059308;28;19964;-67
2024/04/04 01:15:35;;;;;;;;;;;;;;;-3.83;94.79;100434.31;5070864;28;19975;-66
2024/04/04 01:18:01;;;;;;;;;;;;;;;-3.87;94.53;100438.84;5066962;28;19921;-66
2024/04/04 01:20:26;;;;;;;;;;;;;;;-3.86;94.33;100443.13;5062574;28;19925;-65
2024/04/04 01:22:52;;;;;;;;;;;;;;;-3.81;95.22;100453.28;5060336;28;19924;-67
2024/04/04 01:25:18;;;;;;;;;;;;;;;-3.78;94.50;100453.13;5066984;28;19924;-68
2024/04/04 01:27:48;;;;;;;;;;;;;;;-3.83;93.24;100460.34;5058825;28;20378;-67
2024/04/04 01:30:13;;;;;;;;;;;;;;;-3.81;93.40;100463.69;5065243;28;19931;-67
2024/04/04 01:32:38;;;;;;;;;;;;;;;-3.77;92.97;100471.25;5063101;28;19924;-67
2024/04/04 01:35:04;;;;;;;;;;;;;;;-3.75;92.84;100479.84;5068804;28;19972;-67
2024/04/04 01:37:29;;;;;;;;;;;;;;;-3.75;92.01;100479.03;5063288;28;19971;-67
2024/04/04 01:39:54;;;;;;;;;;;;;;;-3.77;92.29;100497.28;5067442;28;19924;-68
2024/04/04 01:42:20;;;;;;;;;;;;;;;-3.73;92.72;100492.78;5067805;28;19925;-68
2024/04/04 01:44:45;;;;;;;;;;;;;;;-3.75;91.71;100500.69;5068785;28;19924;-66
2024/04/04 01:47:10;;;;;;;;;;;;;;;-3.75;91.77;100505.88;5068824;28;19969;-66
2024/04/04 01:49:36;;;;;;;;;;;;;;;-3.73;91.92;100517.97;5058726;28;19971;-67
2024/04/04 01:52:02;;;;;;;;;;;;;;;-3.80;90.81;100513.06;5061994;28;19925;-66
2024/04/04 01:54:28;;;;;;;;;;;;;;;-3.84;91.27;100523.69;5056942;28;19931;-68
2024/04/04 01:56:53;;;;;;;;;;;;;;;-3.84;92.21;100523.69;5061964;28;19924;-67
2024/04/04 01:59:18;;;;;;;;;;;;;;;-3.79;92.07;100529.50;5058990;28;19932;-68
2024/04/04 02:01:44;;;;;;;;;;;;;;;-3.82;92.36;100530.50;5062024;28;19928;-66
2024/04/04 02:04:09;;;;;;;;;;;;;;;-3.84;92.60;100537.53;5074563;28;19924;-66
2024/04/04 02:06:34;;;;;;;;;;;;;;;-3.83;93.21;100543.59;5077710;28;19950;-67
2024/04/04 02:09:00;;;;;;;;;;;;;;;-3.79;93.16;100555.53;5057673;28;19925;-67
2024/04/04 02:11:25;;;;;;;;;;;;;;;-3.77;91.70;100562.34;5060544;28;20351;-67
2024/04/04 02:13:50;;;;;;;;;;;;;;;-3.75;91.27;100570.09;5061528;28;20439;-66
2024/04/04 02:16:17;;;;;;;;;;;;;;;-3.76;90.44;100570.97;5061501;28;20277;-67
2024/04/04 02:18:43;;;;;;;;;;;;;;;-3.81;90.98;100575.56;5069399;28;19967;-65
2024/04/04 02:21:08;;;;;;;;;;;;;;;-3.80;90.98;100580.72;5065524;28;20016;-67
2024/04/04 02:23:33;;;;;;;;;;;;;;;-3.83;90.34;100582.63;5059289;28;19924;-68
2024/04/04 02:25:59;;;;;;;;;;;;;;;-3.89;90.54;100586.38;5064885;28;19928;-66
2024/04/04 02:28:24;;;;;;;;;;;;;;;-3.90;91.58;100589.06;5059135;28;19974;-66
2024/04/04 02:30:50;;;;;;;;;;;;;;;-3.88;91.46;100593.25;5070165;28;20031;-67
2024/04/04 02:33:16;;;;;;;;;;;;;;;-3.86;91.73;100596.63;5068232;28;19989;-68
2024/04/04 02:35:57;;;;;;;;;;;;;;;-3.84;92.02;100609.56;5058754;28;20454;-68
2024/04/04 02:38:23;;;;;;;;;;;;;;;-3.84;91.34;100612.16;5063689;28;19955;-67
2024/04/04 02:40:48;;;;;;;;;;;;;;;-3.89;91.01;100620.19;5054117;28;19925;-66
2024/04/04 02:43:14;;;;;;;;;;;;;;;-3.92;91.10;100625.56;5068303;28;20440;-67
2024/04/04 02:45:39;;;;;;;;;;;;;;;-3.98;90.98;100643.22;5064509;28;20002;-66
2024/04/04 02:48:05;;;;;;;;;;;;;;;-4.03;91.55;100634.78;5065095;28;19924;-68
2024/04/04 02:50:30;;;;;;;;;;;;;;;-4.03;92.07;100640.84;5067293;28;19932;-67
2024/04/04 02:52:56;;;;;;;;;;;;;;;-4.07;93.30;100645.31;5064643;28;19921;-67
2024/04/04 02:55:21;;;;;;;;;;;;;;;-4.01;94.56;100649.41;5063263;28;19948;-66
2024/04/04 02:57:46;;;;;;;;;;;;;;;-3.93;93.37;100654.25;5066154;28;19924;-67
2024/04/04 03:00:12;;;;;;;;;;;;;;;-3.93;93.20;100656.84;5069614;28;19924;-66
2024/04/04 03:02:38;;;;;;;;;;;;;;;-3.95;93.47;100669.09;5067930;28;19928;-67
2024/04/04 03:05:04;;;;;;;;;;;;;;;-4.01;92.48;100670.22;5062232;28;19925;-66
2024/04/04 03:07:29;;;;;;;;;;;;;;;-4.01;92.87;100669.38;5068673;28;19956;-68
2024/04/04 03:09:54;;;;;;;;;;;;;;;-4.03;92.36;100676.41;5086458;28;19971;-67
2024/04/04 03:12:20;;;;;;;;;;;;;;;-4.04;nan;100685.13;5062685;28;19939;-66
2024/04/04 03:14:45;;;;;;;;;;;;;;;-4.04;92.49;100679.94;5059709;28;19925;-66
2024/04/04 03:17:10;;;;;;;;;;;;;;;-3.97;92.69;100697.78;5056712;28;19932;-69
2024/04/04 03:19:36;;;;;;;;;;;;;;;-3.97;92.00;100702.13;5069063;28;19920;-67
2024/04/04 03:22:01;;;;;;;;;;;;;;;-4.07;92.31;100692.13;5066947;28;20295;-66
2024/04/04 03:24:26;;;;;;;;;;;;;;;-4.03;92.45;100698.06;5060669;28;20360;-69
2024/04/04 03:26:54;;;;;;;;;;;;;;;-3.99;92.87;100701.38;5056724;28;19931;-67
2024/04/04 03:29:20;;;;;;;;;;;;;;;-3.97;93.36;100702.97;5063629;28;19924;-66
2024/04/04 03:31:45;;;;;;;;;;;;;;;-3.91;92.71;100709.66;5057063;28;19931;-66
2024/04/04 03:34:10;;;;;;;;;;;;;;;-3.85;92.52;100719.75;5065531;28;19990;-68
2024/04/04 03:36:36;;;;;;;;;;;;;;;-3.88;92.57;100723.34;5062002;28;20346;-68
2024/04/04 03:39:01;;;;;;;;;;;;;;;-3.93;91.49;100724.47;5068067;28;20292;-66
2024/04/04 03:41:26;;;;;;;;;;;;;;;-4.03;92.13;100728.44;5062262;28;20374;-67
2024/04/04 03:43:52;;;;;;;;;;;;;;;-3.97;92.79;100728.16;5061435;28;19920;-66
2024/04/04 03:46:17;;;;;;;;;;;;;;;-3.93;92.07;100724.47;5066386;28;20019;-68
2024/04/04 03:48:43;;;;;;;;;;;;;;;-3.96;93.08;100735.03;5068090;28;19931;-68
2024/04/04 03:51:08;;;;;;;;;;;;;;;-3.95;93.09;100741.94;5064874;28;19968;-68
2024/04/04 03:53:33;;;;;;;;;;;;;;;-4.00;91.71;100736.09;5065598;28;19929;-69
2024/04/04 03:55:59;;;;;;;;;;;;;;;-4.00;92.10;100751.69;5061007;28;20414;-69
2024/04/04 03:58:24;;;;;;;;;;;;;;;-3.97;92.39;100759.38;5059778;28;19984;-69
2024/04/04 04:00:49;;;;;;;;;;;;;;;-3.90;93.10;100755.56;5062499;28;19993;-67
2024/04/04 04:03:15;;;;;;;;;;;;;;;-3.80;92.71;100762.00;5060862;28;19979;-68
2024/04/04 04:05:40;;;;;;;;;;;;;;;-3.79;91.78;100754.13;5081266;28;19931;-67
2024/04/04 04:08:06;;;;;;;;;;;;;;;-3.73;91.41;100768.63;5083368;28;19931;-69
2024/04/04 04:10:32;;;;;;;;;;;;;;;-3.70;91.08;100778.06;5077994;28;19924;-68
2024/04/04 04:12:57;;;;;;;;;;;;;;;-3.71;90.37;100779.81;5068263;28;19932;-67
2024/04/04 04:15:23;;;;;;;;;;;;;;;-3.62;91.42;100786.34;5060678;28;19925;-67
2024/04/04 04:17:48;;;;;;;;;;;;;;;-3.61;90.34;100783.66;5064367;28;19924;-67
2024/04/04 04:22:58;;;;;;;;;;;;;;;-3.58;88.71;100799.16;5057383;28;19924;-67
2024/04/04 04:25:24;;;;;;;;;;;;;;;-3.62;89.05;100802.81;5055722;28;19932;-67
2024/04/04 04:27:51;;;;;;;;;;;;;;;-3.53;88.60;100810.19;5065958;28;19947;-65
2024/04/04 04:30:16;;;;;;;;;;;;;;;-3.49;88.04;100819.53;5068411;28;19929;-68
2024/04/04 04:32:41;;;;;;;;;;;;;;;-3.54;88.45;100824.09;5059212;28;20277;-65
2024/04/04 04:35:07;;;;;;;;;;;;;;;-3.47;87.43;100832.47;5067420;28;19943;-67
2024/04/04 04:37:35;;;;;;;;;;;;;;;-3.47;87.25;100837.69;5059766;28;19925;-67
2024/04/04 04:40:01;;;;;;;;;;;;;;;-3.42;88.89;100835.72;5055776;28;19933;-68
2024/04/04 04:42:26;;;;;;;;;;;;;;;-3.40;86.05;100848.69;5070570;28;19929;-66
2024/04/04 04:44:52;;;;;;;;;;;;;;;-3.33;86.87;100852.69;5060623;28;19924;-69
2024/04/04 04:47:17;;;;;;;;;;;;;;;-3.29;87.55;100859.41;5077211;28;19920;-69
2024/04/04 04:49:42;;;;;;;;;;;;;;;-3.21;85.26;100865.09;5065682;28;19920;-67
2024/04/04 04:52:08;;;;;;;;;;;;;;;-3.14;85.15;100869.97;5061097;28;19925;-68
2024/04/04 04:54:33;;;;;;;;;;;;;;;-3.06;85.17;100871.38;5062288;28;19982;-69
2024/04/04 04:56:59;;;;;;;;;;;;;;;-3.02;82.36;100876.34;5062581;28;19932;-66
2024/04/04 04:59:25;;;;;;;;;;;;;;;-3.19;82.59;100881.50;5063677;28;19925;-67
2024/04/04 05:01:50;;;;;;;;;;;;;;;-3.26;84.16;100885.31;5061774;28;20384;-67
2024/04/04 05:04:16;;;;;;;;;;;;;;;-3.29;82.86;100893.28;5058106;28;19924;-69
2024/04/04 05:06:46;;;;;;;;;;;;;;;-3.34;80.80;100903.06;5047959;28;19980;-67
2024/04/04 05:09:12;;;;;;;;;;;;;;;-3.50;80.49;100906.38;5060808;28;19924;-67
2024/04/04 05:11:37;;;;;;;;;;;;;;;-3.45;82.25;100914.84;5057307;28;19927;-68
2024/04/04 05:14:02;;;;;;;;;;;;;;;-3.51;80.91;100915.09;5071167;28;19927;-68
2024/04/04 05:16:27;;;;;;;;;;;;;;;-3.52;81.64;100915.16;5063427;28;19959;-67
2024/04/04 05:18:53;;;;;;;;;;;;;;;-3.54;82.31;100923.03;5063141;28;19928;-65
2024/04/04 05:21:18;;;;;;;;;;;;;;;-3.47;83.05;100924.47;5066487;28;19920;-69
2024/04/04 05:23:44;;;;;;;;;;;;;;;-3.31;82.02;100929.81;5063079;28;20311;-68
2024/04/04 05:26:12;;;;;;;;;;;;;;;-3.21;78.85;100932.81;5058762;28;20006;-67
2024/04/04 05:28:39;;;;;;;;;;;;;;;-3.31;79.17;100942.84;5059942;28;19924;-69
2024/04/04 05:31:04;;;;;;;;;;;;;;;-3.33;78.92;100949.03;5053886;28;19928;-67
2024/04/04 05:33:30;;;;;;;;;;;;;;;-3.22;78.52;100965.00;5061362;28;19926;-67
2024/04/04 05:35:55;;;;;;;;;;;;;;;-3.28;78.74;100957.47;5061438;28;19928;-67
2024/04/04 05:38:21;;;;;;;;;;;;;;;-3.40;77.25;100966.69;5062120;28;19920;-70
2024/04/04 05:40:46;;;;;;;;;;;;;;;-3.25;78.66;100963.38;5052607;28;20357;-69
2024/04/04 05:43:12;;;;;;;;;;;;;;;-3.19;78.17;100967.47;5058196;28;19925;-68
2024/04/04 05:45:45;;;;;;;;;;;;;;;-3.18;78.32;100974.38;5063870;28;20082;-71
2024/04/04 05:48:11;;;;;;;;;;;;;;;-3.21;76.90;100979.72;5059513;28;19924;-68
2024/04/04 05:50:36;;;;;;;;;;;;;;;-3.19;77.53;100975.28;5058525;28;19932;-68
2024/04/04 05:53:01;;;;;;;;;;;;;;;-3.13;76.65;100980.22;5056074;28;19931;-67
2024/04/04 05:55:27;;;;;;;;;;;;;;;-3.00;76.01;100989.16;5053356;28;19924;-66
2024/04/04 05:57:52;;;;;;;;;;;;;;;-2.96;76.46;100988.09;5059274;28;19947;-67
2024/04/04 06:00:17;;;;;;;;;;;;;;;-3.04;75.82;100997.19;5065049;28;19921;-69
2024/04/04 06:02:43;;;;;;;;;;;;;;;-3.03;76.55;100986.69;5055989;28;19939;-68
2024/04/04 06:05:08;;;;;;;;;;;;;;;-2.87;76.94;101000.72;5063662;28;20393;-67
2024/04/04 06:07:34;;;;;;;;;;;;;;;-2.90;74.31;100998.22;5063533;28;20410;-67
2024/04/04 06:10:00;;;;;;;;;;;;;;;-2.93;73.34;100998.38;5064268;28;20007;-67
2024/04/04 06:12:25;;;;;;;;;;;;;;;-2.84;74.04;101007.56;5055901;28;20019;-66
2024/04/04 06:14:50;;;;;;;;;;;;;;;-2.72;72.52;101008.72;5043376;28;19971;-66
2024/04/04 06:17:16;;;;;;;;;;;;;;;-2.63;72.36;101008.28;5067336;28;19956;-70
2024/04/04 06:19:41;;;;;;;;;;;;;;;-2.53;72.92;101017.38;5059805;28;19925;-65
2024/04/04 06:22:07;;;;;;;;;;;;;;;-2.37;71.12;101018.31;5060526;28;20709;-71
2024/04/04 06:24:33;;;;;;;;;;;;;;;-2.19;70.48;101025.25;5062467;28;19925;-73
2024/04/04 06:26:58;;;;;;;;;;;;;;;-2.10;72.37;101033.56;5061584;28;20018;-69
2024/04/04 06:29:26;;;;;;;;;;;;;;;-2.08;68.90;101026.50;5072098;28;20031;-71
2024/04/04 06:31:51;;;;;;;;;;;;;;;-2.12;70.27;101035.41;5069490;28;19931;-71
2024/04/04 06:34:17;;;;;;;;;;;;;;;-2.09;69.27;101035.25;5066677;28;19925;-70
2024/04/04 06:36:43;;;;;;;;;;;;;;;-2.05;67.28;101048.06;5066279;28;19978;-70
2024/04/04 06:39:09;;;;;;;;;;;;;;;-2.25;66.83;101038.63;5059829;28;19968;-70
2024/04/04 06:41:35;;;;;;;;;;;;;;;-2.30;67.20;101055.41;5064278;28;19925;-70
2024/04/04 06:44:00;;;;;;;;;;;;;;;-2.30;68.01;101051.03;5066120;28;19928;-72
2024/04/04 06:46:26;;;;;;;;;;;;;;;-2.10;66.79;101059.66;5063554;28;20046;-71
2024/04/04 06:48:51;;;;;;;;;;;;;;;-1.82;68.09;101067.81;5069555;28;19959;-70
2024/04/04 06:51:16;;;;;;;;;;;;;;;-1.71;66.73;101073.38;5057310;28;19932;-72
2024/04/04 06:53:42;;;;;;;;;;;;;;;-1.86;66.00;101074.09;5065911;28;20478;-67
2024/04/04 06:56:07;;;;;;;;;;;;;;;-1.80;66.32;101086.84;5056367;28;19954;-68
2024/04/04 06:58:32;;;;;;;;;;;;;;;-2.07;65.57;101080.38;5052708;28;19920;-70
2024/04/04 07:00:58;;;;;;;;;;;;;;;-1.97;66.77;101087.69;5061381;28;19974;-68
2024/04/04 07:03:24;;;;;;;;;;;;;;;-1.80;66.22;101092.06;5066043;28;20459;-70
2024/04/04 07:05:50;;;;;;;;;;;;;;;-1.69;65.95;101096.78;5074175;28;19924;-69
2024/04/04 07:08:16;;;;;;;;;;;;;;;-1.71;64.53;101102.09;5064154;28;19924;-70
2024/04/04 07:10:41;;;;;;;;;;;;;;;-1.66;65.49;101102.69;5062726;28;20243;-70
2024/04/04 07:13:06;;;;;;;;;;;;;;;-1.72;65.36;101113.44;5063333;28;19955;-71
2024/04/04 07:15:32;;;;;;;;;;;;;;;-1.78;66.06;101124.16;5063127;28;19924;-68
2024/04/04 07:17:57;;;;;;;;;;;;;;;-1.85;65.66;101127.16;5058686;28;19925;-69
2024/04/04 07:20:23;;;;;;;;;;;;;;;-1.79;64.74;101132.94;5065491;28;19940;-69
2024/04/04 07:22:48;;;;;;;;;;;;;;;-1.80;65.99;101126.00;5069484;28;19921;-67
2024/04/04 07:25:15;;;;;;;;;;;;;;;-1.60;65.67;101141.56;5060110;28;19939;-73
2024/04/04 07:27:41;;;;;;;;;;;;;;;-1.61;65.85;101137.25;5067762;28;19924;-68
2024/04/04 07:30:07;;;;;;;;;;;;;;;-1.57;66.49;101143.16;5071943;28;20009;-67
2024/04/04 07:32:33;;;;;;;;;;;;;;;-1.48;64.53;101147.09;5065114;28;19971;-69
2024/04/04 07:35:01;;;;;;;;;;;;;;;-1.52;65.33;101151.63;5065137;28;19928;-68
2024/04/04 07:37:27;;;;;;;;;;;;;;;-1.53;65.36;101151.69;5067098;28;19925;-67
2024/04/04 07:39:52;;;;;;;;;;;;;;;-1.41;64.76;101154.56;5060724;28;20023;-67
2024/04/04 07:42:19;;;;;;;;;;;;;;;-1.26;64.39;101163.38;5064244;28;19921;-67
2024/04/04 07:44:44;;;;;;;;;;;;;;;-1.59;63.43;101109.28;5065127;28;19924;-69
2024/04/04 07:47:10;;;;;;;;;;;;;;;-1.15;63.82;101168.09;5065629;28;20023;-67
2024/04/04 07:49:35;;;;;;;;;;;;;;;-1.23;63.51;101163.22;5066905;28;19970;-72
2024/04/04 07:52:01;;;;;;;;;;;;;;;-1.31;65.00;101181.06;5068720;28;20295;-70
2024/04/04 07:54:26;;;;;;;;;;;;;;;-1.44;63.95;101180.84;5064223;28;19924;-67
2024/04/04 07:56:52;;;;;;;;;;;;;;;-1.56;64.98;101182.28;5058092;28;20351;-68
2024/04/04 07:59:17;;;;;;;;;;;;;;;-1.57;66.00;101180.59;5060531;28;19925;-68
2024/04/04 08:01:42;;;;;;;;;;;;;;;-1.57;65.47;101195.41;5065805;28;19931;-69
2024/04/04 08:04:08;;;;;;;;;;;;;;;-1.82;65.63;101194.91;5056782;28;19925;-67
2024/04/04 08:06:34;;;;;;;;;;;;;;;-1.75;66.06;101210.19;5055103;28;19932;-67
2024/04/04 08:09:00;;;;;;;;;;;;;;;-1.62;66.11;101223.53;5062009;28;19920;-67
2024/04/04 08:11:25;;;;;;;;;;;;;;;-1.72;65.69;101222.28;5056390;28;19963;-67
2024/04/04 08:13:51;;;;;;;;;;;;;;;-1.75;66.29;101227.63;5063702;28;20020;-68
2024/04/04 08:16:17;;;;;;;;;;;;;;;-1.57;65.53;101222.38;5067627;28;20374;-69
2024/04/04 08:18:43;;;;;;;;;;;;;;;-1.29;64.91;101232.31;5065836;28;20345;-67
2024/04/04 08:21:08;;;;;;;;;;;;;;;-1.18;64.19;101225.72;5067470;28;20039;-67
2024/04/04 08:23:33;;;;;;;;;;;;;;;-1.20;62.64;101223.19;5061738;28;19924;-68
2024/04/04 08:25:59;;;;;;;;;;;;;;;-0.89;64.43;101229.47;5061442;28;20346;-68
2024/04/04 08:28:26;;;;;;;;;;;;;;;-0.58;64.02;101240.06;5065996;28;20349;-70
2024/04/04 08:31:02;;;;;;;;;;;;;;;-0.43;63.52;101241.88;5067806;28;19924;-70
2024/04/04 08:33:28;;;;;;;;;;;;;;;-0.13;63.06;101238.56;5059700;28;19998;-67
2024/04/04 08:35:54;;;;;;;;;;;;;;;0.12;62.50;101252.00;5068634;28;20417;-67
2024/04/04 08:38:19;;;;;;;;;;;;;;;0.40;60.67;101250.50;5061337;28;19925;-66
2024/04/04 08:40:45;;;;;;;;;;;;;;;0.48;60.19;101266.63;5067310;28;19946;-68
2024/04/04 08:43:14;;;;;;;;;;;;;;;0.53;60.40;101262.81;5063679;28;19952;-66
2024/04/04 08:45:46;;;;;;;;;;;;;;;0.49;58.52;101268.31;5063386;28;19921;-68
2024/04/04 08:48:19;;;;;;;;;;;;;;;0.47;58.65;101264.94;5065767;28;19920;-67
2024/04/04 08:50:47;;;;;;;;;;;;;;;0.48;57.99;101266.63;5063082;28;19968;-68
2024/04/04 08:53:19;;;;;;;;;;;;;;;0.36;58.30;101276.03;5061849;28;19921;-68
2024/04/04 08:55:44;;;;;;;;;;;;;;;0.23;58.97;101286.31;5069439;28;19954;-68
2024/04/04 08:58:12;;;;;;;;;;;;;;;0.00;58.03;101291.97;5063261;28;19921;-66
2024/04/04 09:00:37;;;;;;;;;;;;;;;0.03;58.08;101294.44;5063743;28;19925;-68
2024/04/04 09:03:03;;;;;;;;;;;;;;;0.11;58.53;101292.22;5065260;28;19920;-67
2024/04/04 09:05:29;;;;;;;;;;;;;;;0.40;58.53;101300.28;5060745;28;19925;-66
2024/04/04 09:07:57;;;;;;;;;;;;;;;0.41;55.47;101294.94;5057645;28;20426;-68
2024/04/04 09:10:23;;;;;;;;;;;;;;;0.64;57.55;101301.53;5062893;28;20035;-68
2024/04/04 09:12:58;;;;;;;;;;;;;;;0.97;57.86;101297.94;5072650;28;19963;-66
2024/04/04 09:15:25;;;;;;;;;;;;;;;1.05;56.05;101304.44;5061395;28;19928;-66
2024/04/04 09:17:50;;;;;;;;;;;;;;;1.04;55.42;101322.88;5064845;28;20019;-66
2024/04/04 09:20:17;;;;;;;;;;;;;;;0.67;55.34;101317.09;5062383;28;20099;-68
2024/04/04 09:22:43;;;;;;;;;;;;;;;0.29;55.66;101313.97;5062252;28;19924;-68
2024/04/04 09:25:09;;;;;;;;;;;;;;;0.23;57.50;101316.91;5067872;28;19928;-67
2024/04/04 09:27:36;;;;;;;;;;;;;;;0.20;56.60;101323.16;5056725;28;20316;-67
2024/04/04 09:30:02;;;;;;;;;;;;;;;0.01;56.69;101312.00;5057399;28;19925;-67
2024/04/04 09:32:28;;;;;;;;;;;;;;;0.12;58.13;101329.75;5062131;28;19927;-67
2024/04/04 09:34:54;;;;;;;;;;;;;;;0.26;56.94;101335.91;5062041;28;19921;-67
2024/04/04 09:37:20;;;;;;;;;;;;;;;0.22;55.61;101344.03;5065872;28;19959;-68
2024/04/04 09:39:46;;;;;;;;;;;;;;;0.18;57.17;101351.22;5070206;28;19932;-69
2024/04/04 09:42:13;;;;;;;;;;;;;;;0.38;55.68;101352.78;5062604;28;19931;-68
2024/04/04 09:44:38;;;;;;;;;;;;;;;0.43;55.04;101360.38;5063007;28;20805;-67
2024/04/04 09:47:04;;;;;;;;;;;;;;;0.42;54.78;101354.28;5061242;28;19921;-69
2024/04/04 09:49:30;;;;;;;;;;;;;;;0.22;55.20;101357.97;5070047;28;19921;-67
2024/04/04 09:51:56;;;;;;;;;;;;;;;0.36;54.97;101359.03;5062147;28;19964;-68
2024/04/04 09:54:21;;;;;;;;;;;;;;;0.63;56.48;101362.75;5073978;28;19927;-66
2024/04/04 09:56:50;;;;;;;;;;;;;;;0.82;55.34;101368.66;5069981;28;19921;-67
2024/04/04 09:59:23;;;;;;;;;;;;;;;0.89;55.66;101380.53;5068487;28;20311;-67
2024/04/04 10:01:49;;;;;;;;;;;;;;;0.91;56.34;101383.91;5056531;28;19951;-68
2024/04/04 10:04:14;;;;;;;;;;;;;;;1.05;56.17;101388.38;5063520;28;19929;-68
2024/04/04 10:06:40;;;;;;;;;;;;;;;0.99;55.73;101400.97;5064911;28;19951;-69
2024/04/04 10:09:14;;;;;;;;;;;;;;;1.00;55.36;101403.50;5065208;28;20303;-71
2024/04/04 10:11:40;;;;;;;;;;;;;;;0.91;55.70;101398.78;5060004;28;19950;-67
2024/04/04 10:14:11;;;;;;;;;;;;;;;1.01;56.27;101404.38;5063293;28;20281;-67
2024/04/04 10:16:38;;;;;;;;;;;;;;;0.92;55.12;101403.94;5062627;28;19928;-69
2024/04/04 10:19:08;;;;;;;;;;;;;;;0.63;55.21;101409.94;5063656;28;19944;-69
2024/04/04 10:21:33;;;;;;;;;;;;;;;0.29;55.92;101417.00;5060218;28;19959;-68
2024/04/04 10:24:00;;;;;;;;;;;;;;;0.23;56.06;101419.91;5070940;28;19974;-68
2024/04/04 10:26:26;;;;;;;;;;;;;;;0.22;56.31;101420.84;5062632;28;20031;-67
2024/04/04 10:28:52;;;;;;;;;;;;;;;0.32;55.23;101430.84;5065725;28;19931;-70
2024/04/04 10:31:17;;;;;;;;;;;;;;;0.59;56.60;101430.25;5065891;28;19947;-68
2024/04/04 10:33:43;;;;;;;;;;;;;;;0.83;55.50;101438.53;5064993;28;20337;-67
2024/04/04 10:36:08;;;;;;;;;;;;;;;0.96;54.20;101443.13;5073333;28;19928;-68
2024/04/04 10:38:34;;;;;;;;;;;;;;;0.98;54.88;101442.09;5062757;28;19926;-67
2024/04/04 10:41:00;;;;;;;;;;;;;;;0.63;54.90;101448.41;5060985;28;19925;-69
2024/04/04 10:43:25;;;;;;;;;;;;;;;0.66;56.21;101470.06;5068835;28;19924;-67
2024/04/04 10:45:51;;;;;;;;;;;;;;;0.78;54.41;101474.66;5063184;28;20343;-67
2024/04/04 10:48:16;;;;;;;;;;;;;;;0.73;54.16;101479.28;5064702;28;19924;-68
2024/04/04 10:50:41;;;;;;;;;;;;;;;0.62;53.89;101484.28;5068219;28;19920;-67
2024/04/04 10:53:07;;;;;;;;;;;;;;;0.66;55.70;101477.94;5070175;28;20016;-68
2024/04/04 10:55:38;;;;;;;;;;;;;;;0.85;54.78;101483.88;5064051;28;20303;-70
2024/04/04 10:58:07;;;;;;;;;;;;;;;1.06;54.67;101492.34;5065799;28;20295;-71
2024/04/04 11:00:35;;;;;;;;;;;;;;;1.27;54.00;101495.59;5040039;28;19924;-68
2024/04/04 11:03:00;;;;;;;;;;;;;;;1.07;53.25;101493.19;5062458;28;20003;-68
2024/04/04 11:05:26;;;;;;;;;;;;;;;0.71;54.24;101496.88;5065641;28;19931;-68
2024/04/04 11:07:59;;;;;;;;;;;;;;;0.66;55.24;101501.53;5055981;28;19940;-71
2024/04/04 11:10:25;;;;;;;;;;;;;;;0.49;55.83;101507.63;5061943;28;20037;-69
2024/04/04 11:12:51;;;;;;;;;;;;;;;0.60;56.49;101509.72;5064079;28;19921;-69
2024/04/04 11:15:16;;;;;;;;;;;;;;;0.41;55.89;101509.81;5064917;28;19932;-69
2024/04/04 11:17:41;;;;;;;;;;;;;;;0.41;56.95;101507.19;5060730;28;19925;-68
2024/04/04 11:20:16;;;;;;;;;;;;;;;0.52;56.08;101509.25;5062739;28;19921;-66
2024/04/04 11:22:43;;;;;;;;;;;;;;;0.52;56.38;101517.97;5062668;28;20009;-70
2024/04/04 11:25:09;;;;;;;;;;;;;;;0.66;57.24;101514.63;5070504;28;20375;-69
2024/04/04 11:27:38;;;;;;;;;;;;;;;0.86;57.09;101519.66;5066582;28;19951;-66
2024/04/04 11:30:10;;;;;;;;;;;;;;;0.86;55.05;101521.44;5061772;28;20470;-70
2024/04/04 11:32:35;;;;;;;;;;;;;;;0.83;56.60;101519.81;5059696;28;19928;-68
2024/04/04 11:35:04;;;;;;;;;;;;;;;0.95;55.83;101535.84;5064257;28;20023;-67
2024/04/04 11:37:29;;;;;;;;;;;;;;;0.79;54.99;101539.25;5064564;28;19932;-71
2024/04/04 11:39:54;;;;;;;;;;;;;;;0.79;56.48;101547.13;5061262;28;19924;-68
2024/04/04 11:42:24;;;;;;;;;;;;;;;0.89;56.47;101543.13;5065792;28;20015;-71
2024/04/04 11:44:50;;;;;;;;;;;;;;;0.99;56.43;101553.09;5061653;28;19967;-67
2024/04/04 11:47:15;;;;;;;;;;;;;;;1.05;57.04;101552.78;5056682;28;19968;-68
2024/04/04 11:49:40;;;;;;;;;;;;;;;1.16;56.68;101551.28;5068147;28;20439;-71
2024/04/04 11:52:06;;;;;;;;;;;;;;;1.32;54.44;101567.03;5065825;28;19971;-68
2024/04/04 11:54:31;;;;;;;;;;;;;;;1.13;53.24;101582.06;5062244;28;19947;-67
2024/04/04 11:56:57;;;;;;;;;;;;;;;1.02;54.63;101574.78;5062313;28;19927;-68
2024/04/04 11:59:24;;;;;;;;;;;;;;;0.97;54.78;101586.44;5065432;28;20298;-67
2024/04/04 12:01:50;;;;;;;;;;;;;;;0.68;54.39;101591.44;5055645;28;20015;-68
2024/04/04 12:04:15;;;;;;;;;;;;;;;0.55;55.41;101588.56;5066073;28;20313;-68
2024/04/04 12:06:40;;;;;;;;;;;;;;;0.67;55.81;101594.13;5044578;28;19970;-67
2024/04/04 12:09:09;;;;;;;;;;;;;;;0.77;55.19;101590.94;5062465;28;19959;-68
2024/04/04 12:11:35;;;;;;;;;;;;;;;0.89;55.31;101594.72;5067081;28;20424;-68
2024/04/04 12:14:01;;;;;;;;;;;;;;;0.78;55.01;101591.78;5056849;28;19928;-70
2024/04/04 12:16:31;;;;;;;;;;;;;;;0.64;54.76;101604.78;5068861;28;19931;-67
2024/04/04 12:21:40;;;;;;;;;;;;;;;0.56;55.25;101608.59;5060226;28;19932;-68
2024/04/04 12:24:06;;;;;;;;;;;;;;;0.29;57.27;101616.13;5061073;28;19924;-68
2024/04/04 12:26:33;;;;;;;;;;;;;;;0.33;58.00;101614.19;5078954;28;20389;-68
2024/04/04 12:28:58;;;;;;;;;;;;;;;0.37;57.70;101614.88;5061219;28;19924;-67
2024/04/04 12:31:24;;;;;;;;;;;;;;;0.51;58.11;101615.00;5054139;28;19948;-69
2024/04/04 12:33:49;;;;;;;;;;;;;;;0.64;57.80;101617.88;5057773;28;19920;-68
2024/04/04 12:36:15;;;;;;;;;;;;;;;0.86;58.22;101616.69;5065097;28;19928;-69
2024/04/04 12:38:40;;;;;;;;;;;;;;;0.93;56.66;101623.31;5058953;28;19978;-69